sensor_id;sensor_type;location;lat;lon;timestamp;P1;durP1;ratioP1;P2;durP2;ratioP2
69034;SDS011;56091;55.756;37.412;2023-07-13T00:02:32;8.17;;;2.50;;
69034;SDS011;56091;55.756;37.412;2023-07-13T00:07:33;7.22;;;2.40;;
69034;SDS011;56091;55.756;37.412;2023-07-13T00:12:36;6.30;;;2.50;;
69034;SDS011;56091;55.756;37.412;2023-07-13T00:17:38;6.93;;;2.50;;
69034;SDS011;56091;55.756;37.412;2023-07-13T00:22:39;8.30;;;2.20;;
69034;SDS011;56091;55.756;37.412;2023-07-13T00:27:41;5.85;;;2.40;;
69034;SDS011;56091;55.756;37.412;2023-07-13T00:32:45;8.63;;;2.57;;
69034;SDS011;56091;55.756;37.412;2023-07-13T00:37:46;6.20;;;2.28;;
69034;SDS011;56091;55.756;37.412;2023-07-13T00:42:47;7.47;;;2.33;;
69034;SDS011;56091;55.756;37.412;2023-07-13T00:47:50;7.82;;;2.72;;
69034;SDS011;56091;55.756;37.412;2023-07-13T00:52:51;6.27;;;2.70;;
69034;SDS011;56091;55.756;37.412;2023-07-13T00:57:58;6.80;;;2.60;;
69034;SDS011;56091;55.756;37.412;2023-07-13T01:02:59;5.93;;;2.60;;
69034;SDS011;56091;55.756;37.412;2023-07-13T01:08:04;6.37;;;3.03;;
69034;SDS011;56091;55.756;37.412;2023-07-13T01:13:09;5.93;;;2.50;;
69034;SDS011;56091;55.756;37.412;2023-07-13T01:18:13;6.37;;;2.50;;
69034;SDS011;56091;55.756;37.412;2023-07-13T01:23:18;6.03;;;2.53;;
69034;SDS011;56091;55.756;37.412;2023-07-13T01:28:19;5.90;;;2.50;;
69034;SDS011;56091;55.756;37.412;2023-07-13T01:33:20;7.30;;;3.08;;
69034;SDS011;56091;55.756;37.412;2023-07-13T01:38:22;7.67;;;3.03;;
69034;SDS011;56091;55.756;37.412;2023-07-13T01:43:23;6.50;;;2.95;;
69034;SDS011;56091;55.756;37.412;2023-07-13T01:48:24;9.60;;;2.97;;
69034;SDS011;56091;55.756;37.412;2023-07-13T01:53:25;7.18;;;2.60;;
69034;SDS011;56091;55.756;37.412;2023-07-13T01:58:28;6.97;;;2.90;;
69034;SDS011;56091;55.756;37.412;2023-07-13T02:03:30;7.53;;;2.85;;
69034;SDS011;56091;55.756;37.412;2023-07-13T02:08:32;7.03;;;2.80;;
69034;SDS011;56091;55.756;37.412;2023-07-13T02:13:34;7.10;;;2.80;;
69034;SDS011;56091;55.756;37.412;2023-07-13T02:18:35;7.23;;;2.87;;
69034;SDS011;56091;55.756;37.412;2023-07-13T02:23:40;8.10;;;2.42;;
69034;SDS011;56091;55.756;37.412;2023-07-13T02:28:40;5.67;;;2.60;;
69034;SDS011;56091;55.756;37.412;2023-07-13T02:33:44;6.75;;;2.70;;
69034;SDS011;56091;55.756;37.412;2023-07-13T02:38:49;7.67;;;2.63;;
69034;SDS011;56091;55.756;37.412;2023-07-13T02:43:50;7.35;;;2.60;;
69034;SDS011;56091;55.756;37.412;2023-07-13T02:48:53;6.23;;;2.70;;
69034;SDS011;56091;55.756;37.412;2023-07-13T02:53:54;5.55;;;2.42;;
69034;SDS011;56091;55.756;37.412;2023-07-13T02:58:55;5.90;;;2.40;;
69034;SDS011;56091;55.756;37.412;2023-07-13T03:03:56;7.15;;;2.80;;
69034;SDS011;56091;55.756;37.412;2023-07-13T03:08:59;7.20;;;2.80;;
69034;SDS011;56091;55.756;37.412;2023-07-13T03:14:08;9.18;;;2.67;;
69034;SDS011;56091;55.756;37.412;2023-07-13T03:19:12;6.40;;;2.80;;
69034;SDS011;56091;55.756;37.412;2023-07-13T03:24:16;6.78;;;3.25;;
69034;SDS011;56091;55.756;37.412;2023-07-13T03:29:18;7.83;;;2.53;;
69034;SDS011;56091;55.756;37.412;2023-07-13T03:34:19;5.50;;;2.60;;
69034;SDS011;56091;55.756;37.412;2023-07-13T03:39:20;8.63;;;3.00;;
69034;SDS011;56091;55.756;37.412;2023-07-13T03:44:24;8.82;;;3.17;;
69034;SDS011;56091;55.756;37.412;2023-07-13T03:49:30;7.17;;;2.90;;
69034;SDS011;56091;55.756;37.412;2023-07-13T03:54:34;6.57;;;3.03;;
69034;SDS011;56091;55.756;37.412;2023-07-13T03:59:36;6.93;;;3.00;;
69034;SDS011;56091;55.756;37.412;2023-07-13T04:04:37;6.97;;;2.85;;
69034;SDS011;56091;55.756;37.412;2023-07-13T04:09:41;6.10;;;2.80;;
69034;SDS011;56091;55.756;37.412;2023-07-13T04:14:44;7.22;;;3.00;;
69034;SDS011;56091;55.756;37.412;2023-07-13T04:19:45;8.30;;;2.60;;
69034;SDS011;56091;55.756;37.412;2023-07-13T04:24:47;7.10;;;2.97;;
69034;SDS011;56091;55.756;37.412;2023-07-13T04:29:52;7.00;;;2.80;;
69034;SDS011;56091;55.756;37.412;2023-07-13T04:34:58;6.13;;;2.70;;
69034;SDS011;56091;55.756;37.412;2023-07-13T04:39:59;8.20;;;2.60;;
69034;SDS011;56091;55.756;37.412;2023-07-13T04:45:00;8.00;;;2.95;;
69034;SDS011;56091;55.756;37.412;2023-07-13T04:50:01;5.90;;;2.67;;
69034;SDS011;56091;55.756;37.412;2023-07-13T04:55:04;5.55;;;2.60;;
69034;SDS011;56091;55.756;37.412;2023-07-13T05:00:06;8.00;;;3.13;;
69034;SDS011;56091;55.756;37.412;2023-07-13T05:05:07;6.43;;;2.53;;
69034;SDS011;56091;55.756;37.412;2023-07-13T05:10:09;6.03;;;2.50;;
69034;SDS011;56091;55.756;37.412;2023-07-13T05:15:10;7.45;;;2.70;;
69034;SDS011;56091;55.756;37.412;2023-07-13T05:20:12;6.80;;;2.80;;
69034;SDS011;56091;55.756;37.412;2023-07-13T05:25:13;5.83;;;2.60;;
69034;SDS011;56091;55.756;37.412;2023-07-13T05:30:14;15.02;;;3.22;;
69034;SDS011;56091;55.756;37.412;2023-07-13T05:35:18;6.20;;;2.53;;
69034;SDS011;56091;55.756;37.412;2023-07-13T05:40:19;8.13;;;2.45;;
69034;SDS011;56091;55.756;37.412;2023-07-13T05:45:20;5.80;;;2.53;;
69034;SDS011;56091;55.756;37.412;2023-07-13T05:50:21;6.25;;;3.20;;
69034;SDS011;56091;55.756;37.412;2023-07-13T05:55:22;7.43;;;2.40;;
69034;SDS011;56091;55.756;37.412;2023-07-13T06:00:23;5.85;;;2.60;;
69034;SDS011;56091;55.756;37.412;2023-07-13T06:05:24;8.40;;;2.40;;
69034;SDS011;56091;55.756;37.412;2023-07-13T06:10:25;10.43;;;2.50;;
69034;SDS011;56091;55.756;37.412;2023-07-13T06:15:26;6.43;;;2.57;;
69034;SDS011;56091;55.756;37.412;2023-07-13T06:20:30;6.82;;;2.40;;
69034;SDS011;56091;55.756;37.412;2023-07-13T06:25:33;7.73;;;2.63;;
69034;SDS011;56091;55.756;37.412;2023-07-13T06:30:40;6.32;;;2.60;;
69034;SDS011;56091;55.756;37.412;2023-07-13T06:35:41;8.17;;;2.50;;
69034;SDS011;56091;55.756;37.412;2023-07-13T06:40:41;6.90;;;2.60;;
69034;SDS011;56091;55.756;37.412;2023-07-13T06:45:46;6.47;;;2.60;;
69034;SDS011;56091;55.756;37.412;2023-07-13T06:50:49;7.10;;;2.60;;
69034;SDS011;56091;55.756;37.412;2023-07-13T06:55:51;6.07;;;2.63;;
69034;SDS011;56091;55.756;37.412;2023-07-13T07:00:55;7.18;;;2.70;;
69034;SDS011;56091;55.756;37.412;2023-07-13T07:06:03;6.27;;;2.43;;
69034;SDS011;56091;55.756;37.412;2023-07-13T07:11:20;7.70;;;2.50;;
69034;SDS011;56091;55.756;37.412;2023-07-13T07:16:25;5.73;;;2.60;;
69034;SDS011;56091;55.756;37.412;2023-07-13T07:21:26;7.22;;;2.78;;
69034;SDS011;56091;55.756;37.412;2023-07-13T07:26:27;8.30;;;2.43;;
69034;SDS011;56091;55.756;37.412;2023-07-13T07:31:28;7.90;;;2.50;;
69034;SDS011;56091;55.756;37.412;2023-07-13T07:36:29;7.28;;;2.75;;
69034;SDS011;56091;55.756;37.412;2023-07-13T07:41:29;5.73;;;2.43;;
69034;SDS011;56091;55.756;37.412;2023-07-13T07:46:30;8.10;;;2.42;;
69034;SDS011;56091;55.756;37.412;2023-07-13T07:51:31;10.10;;;2.60;;
69034;SDS011;56091;55.756;37.412;2023-07-13T07:56:32;7.47;;;2.50;;
69034;SDS011;56091;55.756;37.412;2023-07-13T08:01:33;7.17;;;2.37;;
69034;SDS011;56091;55.756;37.412;2023-07-13T08:06:34;7.20;;;2.50;;
69034;SDS011;56091;55.756;37.412;2023-07-13T08:11:35;7.03;;;2.37;;
69034;SDS011;56091;55.756;37.412;2023-07-13T08:16:36;6.80;;;2.40;;
69034;SDS011;56091;55.756;37.412;2023-07-13T08:21:38;6.10;;;2.40;;
69034;SDS011;56091;55.756;37.412;2023-07-13T08:26:38;6.53;;;2.58;;
69034;SDS011;56091;55.756;37.412;2023-07-13T08:31:39;6.53;;;2.60;;
69034;SDS011;56091;55.756;37.412;2023-07-13T08:36:40;7.13;;;2.90;;
69034;SDS011;56091;55.756;37.412;2023-07-13T08:41:41;11.53;;;3.07;;
69034;SDS011;56091;55.756;37.412;2023-07-13T08:46:42;6.80;;;2.80;;
69034;SDS011;56091;55.756;37.412;2023-07-13T08:56:46;7.53;;;3.00;;
69034;SDS011;56091;55.756;37.412;2023-07-13T09:17:35;7.73;;;3.00;;
69034;SDS011;56091;55.756;37.412;2023-07-13T09:22:42;10.60;;;3.20;;
69034;SDS011;56091;55.756;37.412;2023-07-13T09:27:46;6.80;;;3.10;;
69034;SDS011;56091;55.756;37.412;2023-07-13T09:32:50;8.38;;;3.67;;
69034;SDS011;56091;55.756;37.412;2023-07-13T09:37:56;8.60;;;3.93;;
69034;SDS011;56091;55.756;37.412;2023-07-13T09:42:58;8.07;;;3.53;;
69034;SDS011;56091;55.756;37.412;2023-07-13T09:48:00;10.17;;;3.93;;
69034;SDS011;56091;55.756;37.412;2023-07-13T09:53:11;9.40;;;4.13;;
69034;SDS011;56091;55.756;37.412;2023-07-13T09:58:22;8.57;;;4.10;;
69034;SDS011;56091;55.756;37.412;2023-07-13T10:03:29;9.38;;;3.63;;
69034;SDS011;56091;55.756;37.412;2023-07-13T10:08:36;9.33;;;3.87;;
69034;SDS011;56091;55.756;37.412;2023-07-13T10:13:42;8.90;;;3.30;;
69034;SDS011;56091;55.756;37.412;2023-07-13T10:19:19;9.00;;;3.77;;
69034;SDS011;56091;55.756;37.412;2023-07-13T10:24:27;8.75;;;3.95;;
69034;SDS011;56091;55.756;37.412;2023-07-13T10:29:29;9.43;;;3.60;;
69034;SDS011;56091;55.756;37.412;2023-07-13T10:34:35;8.05;;;3.75;;
69034;SDS011;56091;55.756;37.412;2023-07-13T10:39:36;9.23;;;3.60;;
69034;SDS011;56091;55.756;37.412;2023-07-13T10:44:41;11.00;;;4.30;;
69034;SDS011;56091;55.756;37.412;2023-07-13T10:49:42;9.53;;;4.43;;
69034;SDS011;56091;55.756;37.412;2023-07-13T10:54:44;12.80;;;4.72;;
69034;SDS011;56091;55.756;37.412;2023-07-13T11:16:01;11.02;;;4.80;;
69034;SDS011;56091;55.756;37.412;2023-07-13T11:21:17;8.20;;;4.50;;
69034;SDS011;56091;55.756;37.412;2023-07-13T11:31:41;9.80;;;5.20;;
69034;SDS011;56091;55.756;37.412;2023-07-13T11:36:45;8.48;;;4.55;;
69034;SDS011;56091;55.756;37.412;2023-07-13T11:41:49;11.97;;;4.57;;
69034;SDS011;56091;55.756;37.412;2023-07-13T11:46:59;9.20;;;4.00;;
69034;SDS011;56091;55.756;37.412;2023-07-13T11:52:19;9.07;;;4.30;;
69034;SDS011;56091;55.756;37.412;2023-07-13T11:57:32;8.05;;;3.70;;
69034;SDS011;56091;55.756;37.412;2023-07-13T12:02:45;12.43;;;3.77;;
69034;SDS011;56091;55.756;37.412;2023-07-13T12:07:50;8.60;;;3.60;;
69034;SDS011;56091;55.756;37.412;2023-07-13T12:12:58;9.10;;;3.87;;
69034;SDS011;56091;55.756;37.412;2023-07-13T12:18:01;12.75;;;4.00;;
69034;SDS011;56091;55.756;37.412;2023-07-13T12:23:04;8.77;;;4.17;;
69034;SDS011;56091;55.756;37.412;2023-07-13T12:28:22;7.97;;;3.92;;
69034;SDS011;56091;55.756;37.412;2023-07-13T12:33:34;8.63;;;3.37;;
69034;SDS011;56091;55.756;37.412;2023-07-13T12:38:38;7.38;;;3.63;;
69034;SDS011;56091;55.756;37.412;2023-07-13T12:43:39;8.80;;;4.17;;
69034;SDS011;56091;55.756;37.412;2023-07-13T12:48:40;13.00;;;4.45;;
69034;SDS011;56091;55.756;37.412;2023-07-13T12:53:43;9.80;;;4.37;;
69034;SDS011;56091;55.756;37.412;2023-07-13T12:58:49;11.48;;;4.40;;
69034;SDS011;56091;55.756;37.412;2023-07-13T13:03:55;10.23;;;4.33;;
69034;SDS011;56091;55.756;37.412;2023-07-13T13:08:57;14.02;;;4.70;;
69034;SDS011;56091;55.756;37.412;2023-07-13T13:19:14;10.52;;;4.45;;
69034;SDS011;56091;55.756;37.412;2023-07-13T13:24:17;17.83;;;5.47;;
69034;SDS011;56091;55.756;37.412;2023-07-13T13:29:21;12.07;;;4.85;;
69034;SDS011;56091;55.756;37.412;2023-07-13T13:34:26;9.40;;;4.43;;
69034;SDS011;56091;55.756;37.412;2023-07-13T13:39:34;11.27;;;4.70;;
69034;SDS011;56091;55.756;37.412;2023-07-13T13:44:37;9.87;;;4.47;;
69034;SDS011;56091;55.756;37.412;2023-07-13T13:49:38;11.15;;;4.47;;
69034;SDS011;56091;55.756;37.412;2023-07-13T13:54:38;10.73;;;4.70;;
69034;SDS011;56091;55.756;37.412;2023-07-13T13:59:39;9.57;;;4.70;;
69034;SDS011;56091;55.756;37.412;2023-07-13T14:04:40;11.37;;;5.70;;
69034;SDS011;56091;55.756;37.412;2023-07-13T14:09:51;11.90;;;5.70;;
69034;SDS011;56091;55.756;37.412;2023-07-13T14:14:57;11.60;;;5.67;;
69034;SDS011;56091;55.756;37.412;2023-07-13T14:20:02;12.20;;;5.53;;
69034;SDS011;56091;55.756;37.412;2023-07-13T14:25:05;15.13;;;5.93;;
69034;SDS011;56091;55.756;37.412;2023-07-13T14:30:14;16.30;;;5.63;;
69034;SDS011;56091;55.756;37.412;2023-07-13T14:35:16;10.90;;;5.47;;
69034;SDS011;56091;55.756;37.412;2023-07-13T14:40:28;11.68;;;4.78;;
69034;SDS011;56091;55.756;37.412;2023-07-13T14:45:32;9.17;;;4.67;;
69034;SDS011;56091;55.756;37.412;2023-07-13T14:50:40;12.85;;;4.90;;
69034;SDS011;56091;55.756;37.412;2023-07-13T14:55:42;15.27;;;5.00;;
69034;SDS011;56091;55.756;37.412;2023-07-13T15:00:44;14.35;;;5.65;;
69034;SDS011;56091;55.756;37.412;2023-07-13T15:05:46;14.63;;;5.70;;
69034;SDS011;56091;55.756;37.412;2023-07-13T15:10:47;15.27;;;6.50;;
69034;SDS011;56091;55.756;37.412;2023-07-13T15:15:51;14.07;;;6.67;;
69034;SDS011;56091;55.756;37.412;2023-07-13T15:20:56;13.52;;;6.40;;
69034;SDS011;56091;55.756;37.412;2023-07-13T15:26:00;14.43;;;6.40;;
69034;SDS011;56091;55.756;37.412;2023-07-13T15:31:05;14.45;;;6.57;;
69034;SDS011;56091;55.756;37.412;2023-07-13T15:36:23;14.63;;;6.00;;
69034;SDS011;56091;55.756;37.412;2023-07-13T15:41:27;16.25;;;6.63;;
69034;SDS011;56091;55.756;37.412;2023-07-13T15:46:28;11.37;;;5.10;;
69034;SDS011;56091;55.756;37.412;2023-07-13T15:51:30;15.05;;;6.38;;
69034;SDS011;56091;55.756;37.412;2023-07-13T15:56:35;11.90;;;5.07;;
69034;SDS011;56091;55.756;37.412;2023-07-13T16:01:38;15.20;;;6.60;;
69034;SDS011;56091;55.756;37.412;2023-07-13T16:06:41;14.57;;;6.60;;
69034;SDS011;56091;55.756;37.412;2023-07-13T16:11:42;15.10;;;5.85;;
69034;SDS011;56091;55.756;37.412;2023-07-13T16:16:46;13.80;;;5.97;;
69034;SDS011;56091;55.756;37.412;2023-07-13T16:21:51;11.70;;;5.37;;
69034;SDS011;56091;55.756;37.412;2023-07-13T16:26:52;13.32;;;5.82;;
69034;SDS011;56091;55.756;37.412;2023-07-13T16:37:18;17.25;;;7.28;;
69034;SDS011;56091;55.756;37.412;2023-07-13T16:42:20;12.43;;;5.83;;
69034;SDS011;56091;55.756;37.412;2023-07-13T16:47:22;14.85;;;6.57;;
69034;SDS011;56091;55.756;37.412;2023-07-13T16:52:23;14.07;;;6.23;;
69034;SDS011;56091;55.756;37.412;2023-07-13T16:57:30;17.63;;;7.32;;
69034;SDS011;56091;55.756;37.412;2023-07-13T17:02:34;14.30;;;5.90;;
69034;SDS011;56091;55.756;37.412;2023-07-13T17:07:38;21.25;;;6.65;;
69034;SDS011;56091;55.756;37.412;2023-07-13T17:12:43;15.07;;;5.87;;
69034;SDS011;56091;55.756;37.412;2023-07-13T17:17:45;19.67;;;7.15;;
69034;SDS011;56091;55.756;37.412;2023-07-13T17:22:48;20.07;;;7.10;;
69034;SDS011;56091;55.756;37.412;2023-07-13T17:27:53;12.60;;;5.75;;
69034;SDS011;56091;55.756;37.412;2023-07-13T17:32:56;15.00;;;6.97;;
69034;SDS011;56091;55.756;37.412;2023-07-13T17:37:58;13.60;;;5.60;;
69034;SDS011;56091;55.756;37.412;2023-07-13T17:43:00;14.80;;;7.30;;
69034;SDS011;56091;55.756;37.412;2023-07-13T17:48:01;13.90;;;6.55;;
69034;SDS011;56091;55.756;37.412;2023-07-13T17:53:12;14.37;;;7.30;;
69034;SDS011;56091;55.756;37.412;2023-07-13T17:58:18;14.80;;;6.35;;
69034;SDS011;56091;55.756;37.412;2023-07-13T18:03:21;14.17;;;7.40;;
69034;SDS011;56091;55.756;37.412;2023-07-13T18:08:32;16.88;;;7.20;;
69034;SDS011;56091;55.756;37.412;2023-07-13T18:13:35;14.17;;;7.20;;
69034;SDS011;56091;55.756;37.412;2023-07-13T18:18:42;17.13;;;6.97;;
69034;SDS011;56091;55.756;37.412;2023-07-13T18:23:44;14.67;;;6.93;;
69034;SDS011;56091;55.756;37.412;2023-07-13T18:28:46;17.65;;;7.25;;
69034;SDS011;56091;55.756;37.412;2023-07-13T18:33:49;16.90;;;6.80;;
69034;SDS011;56091;55.756;37.412;2023-07-13T18:38:53;13.75;;;6.97;;
69034;SDS011;56091;55.756;37.412;2023-07-13T18:43:54;14.10;;;6.73;;
69034;SDS011;56091;55.756;37.412;2023-07-13T18:48:55;15.73;;;7.85;;
69034;SDS011;56091;55.756;37.412;2023-07-13T18:53:55;14.60;;;7.73;;
69034;SDS011;56091;55.756;37.412;2023-07-13T18:58:56;16.08;;;7.25;;
69034;SDS011;56091;55.756;37.412;2023-07-13T19:03:57;15.27;;;7.37;;
69034;SDS011;56091;55.756;37.412;2023-07-13T19:08:59;17.27;;;7.90;;
69034;SDS011;56091;55.756;37.412;2023-07-13T19:14:00;16.87;;;8.13;;
69034;SDS011;56091;55.756;37.412;2023-07-13T19:19:01;14.82;;;7.88;;
69034;SDS011;56091;55.756;37.412;2023-07-13T19:24:02;17.33;;;8.43;;
69034;SDS011;56091;55.756;37.412;2023-07-13T19:29:03;15.02;;;7.78;;
69034;SDS011;56091;55.756;37.412;2023-07-13T19:44:34;15.23;;;8.20;;
69034;SDS011;56091;55.756;37.412;2023-07-13T19:49:36;15.40;;;8.20;;
69034;SDS011;56091;55.756;37.412;2023-07-13T19:54:38;18.23;;;7.73;;
69034;SDS011;56091;55.756;37.412;2023-07-13T19:59:42;13.88;;;6.68;;
69034;SDS011;56091;55.756;37.412;2023-07-13T20:04:46;16.47;;;7.27;;
69034;SDS011;56091;55.756;37.412;2023-07-13T20:09:49;13.00;;;6.30;;
69034;SDS011;56091;55.756;37.412;2023-07-13T20:14:51;13.60;;;7.00;;
69034;SDS011;56091;55.756;37.412;2023-07-13T22:16:22;9.48;;;4.97;;
69034;SDS011;56091;55.756;37.412;2023-07-13T22:21:29;14.10;;;6.30;;
69034;SDS011;56091;55.756;37.412;2023-07-13T22:26:34;13.20;;;6.15;;
69034;SDS011;56091;55.756;37.412;2023-07-13T22:31:36;16.00;;;6.60;;
69034;SDS011;56091;55.756;37.412;2023-07-13T22:36:37;12.60;;;6.53;;
69034;SDS011;56091;55.756;37.412;2023-07-13T22:41:39;14.75;;;6.65;;
69034;SDS011;56091;55.756;37.412;2023-07-13T22:46:42;16.27;;;6.90;;
69034;SDS011;56091;55.756;37.412;2023-07-13T22:51:43;14.18;;;6.88;;
69034;SDS011;56091;55.756;37.412;2023-07-13T22:56:44;13.20;;;6.43;;
69034;SDS011;56091;55.756;37.412;2023-07-13T23:07:15;13.13;;;6.57;;
69034;SDS011;56091;55.756;37.412;2023-07-13T23:12:16;12.13;;;6.23;;
69034;SDS011;56091;55.756;37.412;2023-07-13T23:17:18;12.63;;;6.60;;
69034;SDS011;56091;55.756;37.412;2023-07-13T23:22:23;12.87;;;6.20;;
69034;SDS011;56091;55.756;37.412;2023-07-13T23:27:27;14.35;;;6.13;;
69034;SDS011;56091;55.756;37.412;2023-07-13T23:32:27;12.15;;;6.03;;
69034;SDS011;56091;55.756;37.412;2023-07-13T23:37:31;11.63;;;6.50;;
69034;SDS011;56091;55.756;37.412;2023-07-13T23:42:32;16.42;;;7.60;;
69034;SDS011;56091;55.756;37.412;2023-07-13T23:47:32;17.63;;;8.30;;
69034;SDS011;56091;55.756;37.412;2023-07-13T23:52:36;18.33;;;9.15;;
69034;SDS011;56091;55.756;37.412;2023-07-13T23:57:40;15.97;;;9.00;;
